createdAt,value
2023-03-01T00:02:11.949Z,3.00
2023-03-01T00:04:38.995Z,2.20
2023-03-01T00:07:06.028Z,2.53
2023-03-01T00:09:33.315Z,2.60
2023-03-01T00:12:00.338Z,2.37
2023-03-01T00:14:27.349Z,2.63
2023-03-01T00:16:54.480Z,2.70
2023-03-01T00:19:22.827Z,2.13
2023-03-01T00:21:49.808Z,2.13
2023-03-01T00:24:16.574Z,2.80
2023-03-01T00:26:43.707Z,2.20
2023-03-01T00:29:10.348Z,2.93
2023-03-01T00:31:37.377Z,2.50
2023-03-01T00:34:06.237Z,2.57
2023-03-01T00:36:35.947Z,2.60
2023-03-01T00:39:04.058Z,2.33
2023-03-01T00:41:30.735Z,2.80
2023-03-01T00:43:57.974Z,2.03
2023-03-01T00:46:27.788Z,2.17
2023-03-01T00:48:54.993Z,2.70
2023-03-01T00:51:27.411Z,2.20
2023-03-01T00:53:57.487Z,2.30
2023-03-01T00:56:24.608Z,2.93
2023-03-01T00:58:51.844Z,2.47
2023-03-01T01:01:22.437Z,1.97
2023-03-01T01:03:59.762Z,2.03
2023-03-01T01:06:33.073Z,2.70
2023-03-01T01:09:00.008Z,2.93
2023-03-01T01:11:28.893Z,2.73
2023-03-01T01:13:56.071Z,2.93
2023-03-01T01:16:24.869Z,3.30
2023-03-01T01:18:51.951Z,2.53
2023-03-01T01:21:22.250Z,2.17
2023-03-01T01:23:49.444Z,2.90
2023-03-01T01:26:22.171Z,2.57
2023-03-01T01:28:50.851Z,2.47
2023-03-01T01:31:18.065Z,2.17
2023-03-01T01:33:45.170Z,2.13
2023-03-01T01:36:12.298Z,2.70
2023-03-01T01:38:39.488Z,2.77
2023-03-01T01:41:09.319Z,2.50
2023-03-01T01:43:42.411Z,2.53
2023-03-01T01:46:20.273Z,2.60
2023-03-01T01:48:51.427Z,2.60
2023-03-01T01:51:26.417Z,3.13
2023-03-01T01:54:00.920Z,2.47
2023-03-01T01:56:29.838Z,2.37
2023-03-01T01:58:57.486Z,2.40
2023-03-01T02:01:24.648Z,2.60
2023-03-01T02:03:52.348Z,2.80
2023-03-01T02:06:20.112Z,3.50
2023-03-01T02:08:49.560Z,2.47
2023-03-01T02:11:16.788Z,2.53
2023-03-01T02:13:44.096Z,2.60
2023-03-01T02:16:13.704Z,2.80
2023-03-01T02:18:42.725Z,2.47
2023-03-01T02:21:15.254Z,2.27
2023-03-01T02:23:43.050Z,2.33
2023-03-01T02:26:18.276Z,3.00
2023-03-01T02:28:46.064Z,2.93
2023-03-01T02:31:36.304Z,2.30
2023-03-01T02:34:05.386Z,2.60
2023-03-01T02:36:37.565Z,2.53
2023-03-01T02:39:07.185Z,2.70
2023-03-01T02:41:38.807Z,3.20
2023-03-01T02:44:06.608Z,2.50
2023-03-01T02:46:34.042Z,2.33
2023-03-01T02:49:01.498Z,2.60
2023-03-01T02:51:34.149Z,2.47
2023-03-01T02:54:13.014Z,3.10
2023-03-01T02:56:40.410Z,2.53
2023-03-01T02:59:08.072Z,2.73
2023-03-01T03:01:38.801Z,2.60
2023-03-01T03:04:17.781Z,2.47
2023-03-01T03:06:47.130Z,2.93
2023-03-01T03:09:16.692Z,3.00
2023-03-01T03:11:44.588Z,2.90
2023-03-01T03:14:13.435Z,2.90
2023-03-01T03:16:48.234Z,2.70
2023-03-01T03:19:16.015Z,2.90
2023-03-01T03:21:43.495Z,3.13
2023-03-01T03:24:10.561Z,3.07
2023-03-01T03:26:37.628Z,3.33
2023-03-01T03:29:04.667Z,3.50
2023-03-01T03:31:31.837Z,2.60
2023-03-01T03:33:59.857Z,2.83
2023-03-01T03:36:26.893Z,2.50
2023-03-01T03:38:53.966Z,2.87
2023-03-01T03:41:21.019Z,2.80
2023-03-01T03:43:48.274Z,2.60
2023-03-01T03:46:15.534Z,2.80
2023-03-01T03:48:44.771Z,3.07
2023-03-01T03:51:13.966Z,2.80
2023-03-01T03:53:41.380Z,2.70
2023-03-01T03:56:08.693Z,2.90
2023-03-01T03:58:35.452Z,2.67
2023-03-01T04:01:02.525Z,2.57
2023-03-01T04:03:30.710Z,3.10
2023-03-01T04:05:59.431Z,2.67
2023-03-01T04:08:26.991Z,2.73
2023-03-01T04:10:59.080Z,3.33
2023-03-01T04:13:26.337Z,2.80
2023-03-01T04:15:54.687Z,2.67
2023-03-01T04:18:23.163Z,3.27
2023-03-01T04:20:50.143Z,4.10
2023-03-01T04:23:21.262Z,2.80
2023-03-01T04:25:56.656Z,2.80
2023-03-01T04:28:25.412Z,3.07
2023-03-01T04:30:56.327Z,2.30
2023-03-01T04:33:23.653Z,2.30
2023-03-01T04:35:50.792Z,2.80
2023-03-01T04:38:19.230Z,2.80
2023-03-01T04:40:46.534Z,3.13
2023-03-01T04:43:16.617Z,2.67
2023-03-01T04:45:43.987Z,2.50
2023-03-01T04:48:11.028Z,2.93
2023-03-01T04:50:38.074Z,3.03
2023-03-01T04:53:05.106Z,2.73
2023-03-01T04:55:32.444Z,2.77
2023-03-01T04:57:59.761Z,2.60
2023-03-01T05:00:26.880Z,2.77
2023-03-01T05:03:00.199Z,3.10
2023-03-01T05:05:31.301Z,3.30
2023-03-01T05:08:03.213Z,2.93
2023-03-01T05:10:31.568Z,3.10
2023-03-01T05:12:59.621Z,3.30
2023-03-01T05:15:31.831Z,3.20
2023-03-01T05:18:00.846Z,3.53
2023-03-01T05:20:29.739Z,2.47
2023-03-01T05:23:00.257Z,3.00
2023-03-01T05:25:27.316Z,3.63
2023-03-01T05:27:54.421Z,2.70
2023-03-01T05:30:22.438Z,2.60
2023-03-01T05:32:50.565Z,3.77
2023-03-01T05:35:18.541Z,3.20
2023-03-01T05:37:47.251Z,5.05
2023-03-01T05:40:18.429Z,3.40
2023-03-01T05:42:47.134Z,3.53
2023-03-01T05:45:15.221Z,3.57
2023-03-01T05:47:45.805Z,3.10
2023-03-01T05:50:15.358Z,3.03
2023-03-01T05:52:42.428Z,2.57
2023-03-01T05:55:09.522Z,2.83
2023-03-01T05:57:36.545Z,3.70
2023-03-01T06:00:04.054Z,2.40
2023-03-01T06:02:39.537Z,2.70
2023-03-01T06:05:07.823Z,2.70
2023-03-01T06:07:34.838Z,2.87
2023-03-01T06:10:01.880Z,3.00
2023-03-01T06:12:35.297Z,2.90
2023-03-01T06:15:02.509Z,3.47
2023-03-01T06:17:36.501Z,2.73
2023-03-01T06:20:03.612Z,3.57
2023-03-01T06:22:30.639Z,3.20
2023-03-01T06:24:57.644Z,3.57
2023-03-01T06:27:24.302Z,3.23
2023-03-01T06:29:51.425Z,2.47
2023-03-01T06:32:18.101Z,4.97
2023-03-01T06:34:45.292Z,4.03
2023-03-01T06:37:12.355Z,4.17
2023-03-01T06:39:39.946Z,3.70
2023-03-01T06:42:06.985Z,3.30
2023-03-01T06:44:34.562Z,3.43
2023-03-01T06:47:01.671Z,3.70
2023-03-01T06:49:28.488Z,3.20
2023-03-01T06:51:55.642Z,3.67
2023-03-01T06:54:23.280Z,3.90
2023-03-01T06:56:50.739Z,3.47
2023-03-01T06:59:18.271Z,3.50
2023-03-01T07:01:45.445Z,3.67
2023-03-01T07:04:12.835Z,4.70
2023-03-01T07:06:39.854Z,3.37
2023-03-01T07:09:06.956Z,3.80
2023-03-01T07:11:34.040Z,3.30
2023-03-01T07:14:01.110Z,4.23
2023-03-01T07:16:28.260Z,3.70
2023-03-01T07:18:55.357Z,5.00
2023-03-01T07:21:22.411Z,3.77
2023-03-01T07:23:49.927Z,3.33
2023-03-01T07:26:16.962Z,4.23
2023-03-01T07:28:43.987Z,4.63
2023-03-01T07:31:10.625Z,4.20
2023-03-01T07:33:37.669Z,4.27
2023-03-01T07:36:05.807Z,4.37
2023-03-01T07:38:32.781Z,4.90
2023-03-01T07:41:01.760Z,5.40
2023-03-01T07:43:31.880Z,4.70
2023-03-01T07:46:02.845Z,4.30
2023-03-01T07:48:30.707Z,4.30
2023-03-01T07:51:01.810Z,4.83
2023-03-01T07:53:29.175Z,5.40
2023-03-01T07:56:10.514Z,4.83
2023-03-01T07:58:38.601Z,4.03
2023-03-01T08:01:11.737Z,4.67
2023-03-01T08:03:39.101Z,4.90
2023-03-01T08:06:08.035Z,4.60
2023-03-01T08:08:35.447Z,4.60
2023-03-01T08:11:04.013Z,4.40
2023-03-01T08:13:31.373Z,4.23
2023-03-01T08:16:10.598Z,3.97
2023-03-01T08:18:37.625Z,4.23
2023-03-01T08:21:09.421Z,4.00
2023-03-01T08:23:36.819Z,4.10
2023-03-01T08:26:16.450Z,3.90
2023-03-01T08:28:43.642Z,4.00
2023-03-01T08:31:30.943Z,3.57
2023-03-01T08:34:01.039Z,3.90
2023-03-01T08:36:33.744Z,3.40
2023-03-01T08:39:01.055Z,3.17
2023-03-01T08:41:28.366Z,4.10
2023-03-01T08:43:59.453Z,3.50
2023-03-01T08:46:31.307Z,3.63
2023-03-01T08:48:58.589Z,3.83
2023-03-01T08:51:26.300Z,3.40
2023-03-01T08:53:53.363Z,3.90
2023-03-01T08:56:20.425Z,3.87
2023-03-01T08:58:49.032Z,3.53
2023-03-01T09:01:17.865Z,3.70
2023-03-01T09:03:45.452Z,3.93
2023-03-01T09:06:13.114Z,3.27
2023-03-01T09:08:42.471Z,3.33
2023-03-01T09:11:12.096Z,3.60
2023-03-01T09:13:38.888Z,4.50
2023-03-01T09:16:07.605Z,4.43
2023-03-01T09:18:35.404Z,3.70
2023-03-01T09:21:13.863Z,4.47
2023-03-01T09:23:46.109Z,3.40
2023-03-01T09:26:20.166Z,3.80
2023-03-01T09:28:47.793Z,3.70
2023-03-01T09:31:15.798Z,3.50
2023-03-01T09:33:43.571Z,3.37
2023-03-01T09:36:17.179Z,3.97
2023-03-01T09:38:44.401Z,3.13
2023-03-01T09:41:35.110Z,3.77
2023-03-01T09:44:11.320Z,3.27
2023-03-01T09:46:43.417Z,3.20
2023-03-01T09:49:20.756Z,3.13
2023-03-01T09:52:06.145Z,3.37
2023-03-01T09:54:33.213Z,4.30
2023-03-01T09:57:18.434Z,3.10
2023-03-01T10:00:18.809Z,2.77
2023-03-01T10:03:00.993Z,3.53
2023-03-01T10:05:50.855Z,4.43
2023-03-01T10:08:20.283Z,3.07
2023-03-01T10:10:49.182Z,4.77
2023-03-01T10:13:24.984Z,3.70
2023-03-01T10:15:57.020Z,4.03
2023-03-01T10:18:28.303Z,3.67
2023-03-01T10:21:00.961Z,3.47
2023-03-01T10:23:31.370Z,4.00
2023-03-01T10:26:00.915Z,4.53
2023-03-01T10:28:40.165Z,2.93
2023-03-01T10:31:15.764Z,3.83
2023-03-01T10:33:43.425Z,3.33
2023-03-01T10:36:10.324Z,3.13
2023-03-01T10:38:54.634Z,3.80
2023-03-01T10:41:24.331Z,3.53
2023-03-01T10:43:56.798Z,3.10
2023-03-01T10:46:26.793Z,3.47
2023-03-01T10:49:08.551Z,3.10
2023-03-01T10:51:35.618Z,3.50
2023-03-01T10:54:03.052Z,3.10
2023-03-01T10:56:34.512Z,3.50
2023-03-01T10:59:06.403Z,3.47
2023-03-01T11:01:36.176Z,3.37
2023-03-01T11:04:09.122Z,3.73
2023-03-01T11:06:37.980Z,3.70
2023-03-01T11:09:24.852Z,3.50
2023-03-01T11:11:56.872Z,4.07
2023-03-01T11:14:27.892Z,3.83
2023-03-01T11:17:34.688Z,3.73
2023-03-01T11:20:19.109Z,3.40
2023-03-01T11:22:53.408Z,3.90
2023-03-01T11:25:25.062Z,4.43
2023-03-01T11:27:52.926Z,4.40
2023-03-01T11:30:24.965Z,3.60
2023-03-01T11:33:14.661Z,3.20
2023-03-01T11:36:03.730Z,3.80
2023-03-01T11:38:35.393Z,3.53
2023-03-01T11:41:19.356Z,3.57
2023-03-01T11:43:53.900Z,4.10
2023-03-01T11:47:01.931Z,3.70
2023-03-01T11:49:43.723Z,3.40
2023-03-01T11:52:16.513Z,3.43
2023-03-01T11:55:02.364Z,3.67
2023-03-01T11:57:53.798Z,3.50
2023-03-01T12:00:50.099Z,3.43
2023-03-01T12:03:40.634Z,3.50
2023-03-01T12:06:32.360Z,3.43
2023-03-01T12:09:35.782Z,3.60
2023-03-01T12:12:02.792Z,3.93
2023-03-01T12:14:41.390Z,2.83
2023-03-01T12:17:30.130Z,3.10
2023-03-01T12:20:12.041Z,3.10
2023-03-01T12:23:14.868Z,2.60
2023-03-01T12:26:09.768Z,3.60
2023-03-01T12:29:22.770Z,3.40
2023-03-01T12:32:25.554Z,3.20
2023-03-01T12:35:29.276Z,3.23
2023-03-01T12:38:31.575Z,3.10
2023-03-01T12:41:36.131Z,3.33
2023-03-01T12:44:25.997Z,3.30
2023-03-01T12:47:20.516Z,3.33
2023-03-01T12:50:02.506Z,3.63
2023-03-01T12:52:48.439Z,3.97
2023-03-01T12:55:41.192Z,2.50
2023-03-01T12:58:49.646Z,2.50
2023-03-01T13:01:17.956Z,2.27
2023-03-01T13:04:00.847Z,2.40
2023-03-01T13:06:46.178Z,3.30
2023-03-01T13:09:36.073Z,3.10
2023-03-01T13:12:06.171Z,3.40
2023-03-01T13:14:38.216Z,3.00
2023-03-01T13:17:04.928Z,2.00
2023-03-01T13:19:36.744Z,2.70
2023-03-01T13:22:28.969Z,2.67
2023-03-01T13:25:04.236Z,2.80
2023-03-01T13:27:31.468Z,2.27
2023-03-01T13:30:06.641Z,3.30
2023-03-01T13:32:43.469Z,3.07
2023-03-01T13:35:20.143Z,3.10
2023-03-01T13:37:47.307Z,2.70
2023-03-01T13:40:19.144Z,2.87
2023-03-01T13:42:59.342Z,2.90
2023-03-01T13:45:41.036Z,3.00
2023-03-01T13:48:24.546Z,2.97
2023-03-01T13:51:04.698Z,2.73
2023-03-01T13:53:36.516Z,3.43
2023-03-01T13:56:08.161Z,2.90
2023-03-01T13:58:48.042Z,3.10
2023-03-01T14:01:37.066Z,3.23
2023-03-01T14:04:19.135Z,3.43
2023-03-01T14:06:46.166Z,2.90
2023-03-01T14:09:26.591Z,4.00
2023-03-01T14:12:11.958Z,2.90
2023-03-01T14:14:56.910Z,3.10
2023-03-01T14:17:29.378Z,2.63
2023-03-01T14:20:01.718Z,3.57
2023-03-01T14:22:36.528Z,2.83
2023-03-01T14:25:30.841Z,3.20
2023-03-01T14:28:17.715Z,3.10
2023-03-01T14:30:47.356Z,2.93
2023-03-01T14:33:35.297Z,3.50
2023-03-01T14:36:07.516Z,3.70
2023-03-01T14:38:41.157Z,3.33
2023-03-01T14:41:16.849Z,3.40
2023-03-01T14:43:57.136Z,3.87
2023-03-01T14:46:37.386Z,3.93
2023-03-01T14:49:26.432Z,3.93
2023-03-01T14:51:53.460Z,3.57
2023-03-01T14:54:46.988Z,3.43
2023-03-01T14:57:26.440Z,3.30
2023-03-01T14:59:55.538Z,3.30
2023-03-01T15:02:25.601Z,4.23
2023-03-01T15:05:09.058Z,4.17
2023-03-01T15:07:41.089Z,4.03
2023-03-01T15:10:20.294Z,4.10
2023-03-01T15:12:47.000Z,3.90
2023-03-01T15:15:36.115Z,3.93
2023-03-01T15:18:07.536Z,3.70
2023-03-01T15:20:37.114Z,3.10
2023-03-01T15:23:04.919Z,4.10
2023-03-01T15:25:33.720Z,3.33
2023-03-01T15:28:02.716Z,4.10
2023-03-01T15:30:38.111Z,3.37
2023-03-01T15:33:22.713Z,4.10
2023-03-01T15:35:54.570Z,3.83
2023-03-01T15:39:01.484Z,4.27
2023-03-01T15:41:34.372Z,3.40
2023-03-01T15:44:14.703Z,3.80
2023-03-01T15:46:41.922Z,3.70
2023-03-01T15:49:54.052Z,3.87
2023-03-01T15:52:31.805Z,3.73
2023-03-01T15:55:03.913Z,3.13
2023-03-01T15:57:30.698Z,3.30
2023-03-01T15:59:57.798Z,3.17
2023-03-01T16:02:25.469Z,3.50
2023-03-01T16:04:54.555Z,3.33
2023-03-01T16:07:21.606Z,3.93
2023-03-01T16:09:48.644Z,3.47
2023-03-01T16:12:17.563Z,3.23
2023-03-01T16:14:44.667Z,3.40
2023-03-01T16:17:12.151Z,3.23
2023-03-01T16:19:39.519Z,3.40
2023-03-01T16:22:06.788Z,3.97
2023-03-01T16:24:33.599Z,3.10
2023-03-01T16:27:00.688Z,3.07
2023-03-01T16:29:27.345Z,2.93
2023-03-01T16:31:54.488Z,3.17
2023-03-01T16:34:22.851Z,2.83
2023-03-01T16:36:50.183Z,3.43
2023-03-01T16:39:17.730Z,2.53
2023-03-01T16:41:44.855Z,2.93
2023-03-01T16:44:11.549Z,2.60
2023-03-01T16:46:38.705Z,2.60
2023-03-01T16:49:05.787Z,2.77
2023-03-01T16:51:35.732Z,2.90
2023-03-01T16:54:03.056Z,2.87
2023-03-01T16:56:31.186Z,2.90
2023-03-01T16:58:58.566Z,2.97
2023-03-01T17:01:26.808Z,2.63
2023-03-01T17:03:54.076Z,3.30
2023-03-01T17:06:23.008Z,2.53
2023-03-01T17:08:50.043Z,3.67
2023-03-01T17:11:18.999Z,3.03
2023-03-01T17:13:46.296Z,2.80
2023-03-01T17:16:16.970Z,2.80
2023-03-01T17:18:44.245Z,3.63
2023-03-01T17:21:11.466Z,2.60
2023-03-01T17:23:40.461Z,2.97
2023-03-01T17:26:08.002Z,3.10
2023-03-01T17:28:36.120Z,2.40
2023-03-01T17:31:04.462Z,3.13
2023-03-01T17:33:31.797Z,3.33
2023-03-01T17:35:59.760Z,3.50
2023-03-01T17:38:27.007Z,3.00
2023-03-01T17:40:54.135Z,2.40
2023-03-01T17:43:21.203Z,2.93
2023-03-01T17:45:50.584Z,2.37
2023-03-01T17:48:17.560Z,3.07
2023-03-01T17:50:44.609Z,2.83
2023-03-01T17:53:11.731Z,2.83
2023-03-01T17:55:40.148Z,2.77
2023-03-01T17:58:07.888Z,3.30
2023-03-01T18:00:35.902Z,3.80
2023-03-01T18:03:03.123Z,3.53
2023-03-01T18:05:33.702Z,2.97
2023-03-01T18:08:00.793Z,2.93
2023-03-01T18:10:28.105Z,3.20
2023-03-01T18:12:55.156Z,2.60
2023-03-01T18:15:22.300Z,2.90
2023-03-01T18:17:49.363Z,2.90
2023-03-01T18:20:17.812Z,2.63
2023-03-01T18:22:45.504Z,3.20
2023-03-01T18:25:12.638Z,3.27
2023-03-01T18:27:39.948Z,2.93
2023-03-01T18:30:08.078Z,2.90
2023-03-01T18:32:35.239Z,2.80
2023-03-01T18:35:02.408Z,2.77
2023-03-01T18:37:29.054Z,3.80
2023-03-01T18:39:55.723Z,3.93
2023-03-01T18:42:22.831Z,5.97
2023-03-01T18:44:50.029Z,6.93
2023-03-01T18:47:17.290Z,7.57
2023-03-01T18:49:44.653Z,7.80
2023-03-01T18:52:11.664Z,4.03
2023-03-01T18:54:38.696Z,6.80
2023-03-01T18:57:05.323Z,4.50
2023-03-01T18:59:32.385Z,7.10
2023-03-01T19:01:59.631Z,9.37
2023-03-01T19:04:27.184Z,9.77
2023-03-01T19:06:54.255Z,14.07
2023-03-01T19:09:21.420Z,7.10
2023-03-01T19:11:48.443Z,3.93
2023-03-01T19:14:15.481Z,3.73
2023-03-01T19:16:42.552Z,4.07
2023-03-01T19:19:14.550Z,3.90
2023-03-01T19:21:41.773Z,3.27
2023-03-01T19:24:09.022Z,4.00
2023-03-01T19:26:36.466Z,2.93
2023-03-01T19:29:04.814Z,4.10
2023-03-01T19:31:32.211Z,5.13
2023-03-01T19:34:10.901Z,6.10
2023-03-01T19:36:43.311Z,4.70
2023-03-01T19:39:13.327Z,7.13
2023-03-01T19:41:40.871Z,11.07
2023-03-01T19:44:09.685Z,17.70
2023-03-01T19:46:37.049Z,15.10
2023-03-01T19:49:04.971Z,6.10
2023-03-01T19:51:36.507Z,13.30
2023-03-01T19:54:05.855Z,13.63
2023-03-01T19:56:33.689Z,3.00
2023-03-01T19:59:04.202Z,3.40
2023-03-01T20:01:33.155Z,2.80
2023-03-01T20:04:01.481Z,3.40
2023-03-01T20:06:30.047Z,5.77
2023-03-01T20:08:57.920Z,17.73
2023-03-01T20:11:25.303Z,4.73
2023-03-01T20:13:52.043Z,3.73
2023-03-01T20:16:20.182Z,3.60
2023-03-01T20:18:46.876Z,3.73
2023-03-01T20:21:23.441Z,3.33
2023-03-01T20:23:51.669Z,4.47
2023-03-01T20:26:21.605Z,6.47
2023-03-01T20:28:50.980Z,7.37
2023-03-01T20:31:19.812Z,5.20
2023-03-01T20:33:47.198Z,3.73
2023-03-01T20:36:14.456Z,3.40
2023-03-01T20:38:41.549Z,3.87
2023-03-01T20:41:10.820Z,4.28
2023-03-01T20:43:38.114Z,3.67
2023-03-01T20:46:13.596Z,3.17
2023-03-01T20:48:42.916Z,3.43
2023-03-01T20:51:11.788Z,3.17
2023-03-01T20:53:38.844Z,3.40
2023-03-01T20:56:07.760Z,2.80
2023-03-01T20:58:35.762Z,2.57
2023-03-01T21:01:07.642Z,2.87
2023-03-01T21:03:34.863Z,2.80
2023-03-01T21:06:03.102Z,3.73
2023-03-01T21:08:30.627Z,3.90
2023-03-01T21:10:57.953Z,4.47
2023-03-01T21:13:25.653Z,5.27
2023-03-01T21:16:07.490Z,3.43
2023-03-01T21:18:36.721Z,2.93
2023-03-01T21:21:23.140Z,2.80
2023-03-01T21:23:50.206Z,3.77
2023-03-01T21:26:27.320Z,3.43
2023-03-01T21:28:56.780Z,2.97
2023-03-01T21:31:27.514Z,2.10
2023-03-01T21:33:56.993Z,2.90
2023-03-01T21:36:25.159Z,3.10
2023-03-01T21:38:53.442Z,2.80
2023-03-01T21:41:26.790Z,2.60
2023-03-01T21:43:57.255Z,3.00
2023-03-01T21:46:25.442Z,2.67
2023-03-01T21:48:54.255Z,3.43
2023-03-01T21:51:23.110Z,2.70
2023-03-01T21:53:50.761Z,3.10
2023-03-01T21:56:23.669Z,3.07
2023-03-01T21:58:50.767Z,3.13
2023-03-01T22:01:21.601Z,2.93
2023-03-01T22:03:48.735Z,2.37
2023-03-01T22:06:19.999Z,3.07
2023-03-01T22:08:50.851Z,2.87
2023-03-01T22:11:19.387Z,2.57
2023-03-01T22:13:49.280Z,2.53
2023-03-01T22:16:17.230Z,2.47
2023-03-01T22:18:44.401Z,2.60
2023-03-01T22:21:11.706Z,2.80
2023-03-01T22:23:39.566Z,2.43
2023-03-01T22:26:06.822Z,2.63
2023-03-01T22:28:34.253Z,3.20
2023-03-01T22:31:05.392Z,3.10
2023-03-01T22:33:32.447Z,2.50
2023-03-01T22:35:59.555Z,2.60
2023-03-01T22:38:26.660Z,2.70
2023-03-01T22:40:58.051Z,2.43
2023-03-01T22:43:24.701Z,2.57
2023-03-01T22:45:51.386Z,3.00
2023-03-01T22:48:18.421Z,2.83
2023-03-01T22:50:46.968Z,2.90
2023-03-01T22:53:14.787Z,3.13
2023-03-01T22:55:42.344Z,2.40
2023-03-01T22:58:09.633Z,2.90
2023-03-01T23:00:37.090Z,2.57
2023-03-01T23:03:04.673Z,2.57
2023-03-01T23:05:31.829Z,2.90
2023-03-01T23:07:58.848Z,2.70
2023-03-01T23:10:28.721Z,2.53
2023-03-01T23:12:56.201Z,2.90
2023-03-01T23:15:23.330Z,2.90
2023-03-01T23:17:50.365Z,2.87
2023-03-01T23:20:17.408Z,2.43
2023-03-01T23:22:44.580Z,3.70
2023-03-01T23:25:13.074Z,3.23
2023-03-01T23:27:40.474Z,2.70
2023-03-01T23:30:08.298Z,3.83
2023-03-01T23:32:40.444Z,3.37
2023-03-01T23:35:09.840Z,3.37
2023-03-01T23:37:37.752Z,3.80
2023-03-01T23:40:06.531Z,3.93
2023-03-01T23:42:33.848Z,4.23
2023-03-01T23:45:00.961Z,4.07
2023-03-01T23:47:28.003Z,4.63
2023-03-01T23:49:57.094Z,4.13
2023-03-01T23:52:24.533Z,3.53
2023-03-01T23:54:51.870Z,3.20
2023-03-01T23:57:19.467Z,3.30
2023-03-01T23:59:46.620Z,3.37
